Time;durP1;ratioP1;P1;durP2;ratioP2;P2;SDS_P1;SDS_P2;PMS_P1;PMS_P2;Temp;Humidity;BMP_temperature;BMP_pressure;BME280_temperature;BME280_humidity;BME280_pressure;Samples;Min_cycle;Max_cycle;Signal;HPM_P1;HPM_P2
2023/01/19 00:01:21;;;;;;;;;;;0.20;99.90;;;;;;5071380;28;19908;-61
2023/01/19 00:03:46;;;;;;;;;;;0.20;99.90;;;;;;5069196;28;20297;-62
2023/01/19 00:06:12;;;;;;;;;;;0.10;99.90;;;;;;5070367;28;20263;-62
2023/01/19 00:08:38;;;;;;;;;;;0.10;99.90;;;;;;5070643;28;19966;-62
2023/01/19 00:11:03;;;;;;;;;;;-0.10;99.90;;;;;;5073270;28;19917;-61
2023/01/19 00:13:29;;;;;;;;;;;-0.10;99.90;;;;;;5060258;28;19912;-62
2023/01/19 00:15:55;;;;;;;;;;;-0.20;99.90;;;;;;5070068;28;19912;-61
2023/01/19 00:18:20;;;;;;;;;;;-0.40;99.90;;;;;;5074343;28;20286;-58
2023/01/19 00:20:46;;;;;;;;;;;-0.50;99.90;;;;;;5069988;28;19916;-61
2023/01/19 00:23:11;;;;;;;;;;;-0.60;99.90;;;;;;5039265;28;19995;-61
2023/01/19 00:25:43;;;;;;;;;;;-0.60;99.90;;;;;;5083499;28;19923;-61
2023/01/19 00:28:09;;;;;;;;;;;-0.70;99.90;;;;;;5063456;28;19916;-61
2023/01/19 00:30:35;;;;;;;;;;;-0.70;99.90;;;;;;5054688;28;19920;-61
2023/01/19 00:33:00;;;;;;;;;;;-0.70;99.90;;;;;;5069049;28;19912;-61
2023/01/19 00:35:26;;;;;;;;;;;-0.70;99.90;;;;;;5068987;28;20003;-62
2023/01/19 00:37:51;;;;;;;;;;;-0.80;99.90;;;;;;5052393;28;19962;-62
2023/01/19 00:40:17;;;;;;;;;;;-0.80;99.90;;;;;;5055250;28;20300;-62
2023/01/19 00:42:47;;;;;;;;;;;-0.70;99.90;;;;;;5055401;28;20026;-63
2023/01/19 00:45:19;;;;;;;;;;;-0.70;99.90;;;;;;5063527;28;19967;-60
2023/01/19 00:47:46;;;;;;;;;;;-0.70;99.90;;;;;;5065370;28;20274;-63
2023/01/19 00:50:12;;;;;;;;;;;-0.70;99.90;;;;;;5073558;28;19912;-60
2023/01/19 00:52:38;;;;;;;;;;;-0.60;99.90;;;;;;5069434;28;20424;-62
2023/01/19 00:55:04;;;;;;;;;;;-0.60;99.90;;;;;;5073056;28;19917;-62
2023/01/19 00:57:29;;;;;;;;;;;-0.50;99.90;;;;;;5073744;28;20388;-61
2023/01/19 00:59:55;;;;;;;;;;;-0.50;99.90;;;;;;5072364;28;19908;-62
2023/01/19 01:02:20;;;;;;;;;;;-0.50;99.90;;;;;;5070794;28;19908;-62
2023/01/19 01:04:46;;;;;;;;;;;-0.50;99.90;;;;;;5071197;28;19923;-62
2023/01/19 01:07:11;;;;;;;;;;;-0.40;99.90;;;;;;5071821;28;19934;-62
2023/01/19 01:09:37;;;;;;;;;;;-0.30;99.90;;;;;;5070607;28;19912;-62
2023/01/19 01:12:02;;;;;;;;;;;-0.30;99.90;;;;;;5070594;28;20361;-62
2023/01/19 01:14:28;;;;;;;;;;;-0.20;99.90;;;;;;5052465;28;19909;-61
2023/01/19 01:16:53;;;;;;;;;;;-0.10;99.90;;;;;;5072791;28;20243;-61
2023/01/19 01:19:19;;;;;;;;;;;-0.10;99.90;;;;;;5069943;28;19921;-61
2023/01/19 01:21:45;;;;;;;;;;;0.00;99.90;;;;;;5070736;28;20017;-60
2023/01/19 01:24:11;;;;;;;;;;;0.20;99.90;;;;;;5073329;28;19908;-61
2023/01/19 01:26:36;;;;;;;;;;;0.20;99.90;;;;;;5073898;28;20304;-61
2023/01/19 01:29:03;;;;;;;;;;;0.20;99.90;;;;;;5073479;28;19909;-61
2023/01/19 01:31:29;;;;;;;;;;;0.20;99.90;;;;;;5073717;28;20015;-63
2023/01/19 01:33:55;;;;;;;;;;;0.40;99.90;;;;;;5069318;28;20363;-61
2023/01/19 01:36:20;;;;;;;;;;;0.20;99.90;;;;;;5072549;28;19938;-62
2023/01/19 01:38:46;;;;;;;;;;;0.10;99.90;;;;;;5073907;28;19947;-62
2023/01/19 01:41:11;;;;;;;;;;;0.00;99.90;;;;;;5070410;28;19916;-62
2023/01/19 01:43:42;;;;;;;;;;;0.00;99.90;;;;;;5069490;28;19912;-62
2023/01/19 01:46:08;;;;;;;;;;;0.10;99.90;;;;;;5073435;28;19920;-63
2023/01/19 01:48:33;;;;;;;;;;;0.10;99.90;;;;;;5074834;28;19916;-62
2023/01/19 01:51:23;;;;;;;;;;;0.20;99.90;;;;;;5072109;28;19915;-62
2023/01/19 01:53:58;;;;;;;;;;;0.20;99.90;;;;;;5069128;28;19909;-62
2023/01/19 01:56:27;;;;;;;;;;;0.30;99.90;;;;;;5071317;28;19921;-62
2023/01/19 01:58:52;;;;;;;;;;;0.40;99.90;;;;;;5073770;28;19943;-62
2023/01/19 02:04:02;;;;;;;;;;;0.40;99.90;;;;;;5070282;28;19919;-62
2023/01/19 02:06:28;;;;;;;;;;;0.30;99.90;;;;;;5074058;28;19916;-60
2023/01/19 02:14:26;;;;;;;;;;;1.00;99.90;;;;;;5072906;28;19919;-62
2023/01/19 02:16:51;;;;;;;;;;;1.10;99.90;;;;;;5074946;28;20306;-62
2023/01/19 02:19:23;;;;;;;;;;;1.10;99.90;;;;;;5074002;28;20385;-61
2023/01/19 02:22:05;;;;;;;;;;;1.10;99.90;;;;;;5070524;28;20003;-59
2023/01/19 02:24:31;;;;;;;;;;;1.20;99.90;;;;;;5069139;28;20335;-61
2023/01/19 02:26:57;;;;;;;;;;;1.30;99.90;;;;;;5074883;28;19908;-61
2023/01/19 02:29:24;;;;;;;;;;;1.40;99.90;;;;;;5077352;28;19915;-61
2023/01/19 02:31:49;;;;;;;;;;;1.40;99.90;;;;;;5069524;28;19909;-62
2023/01/19 02:34:16;;;;;;;;;;;1.50;99.90;;;;;;5071546;28;19904;-61
2023/01/19 02:36:46;;;;;;;;;;;1.50;99.90;;;;;;5071894;28;19951;-60
2023/01/19 02:39:13;;;;;;;;;;;1.70;99.90;;;;;;5071671;28;19904;-61
2023/01/19 02:41:41;;;;;;;;;;;1.60;99.90;;;;;;5068614;28;19908;-61
2023/01/19 02:44:08;;;;;;;;;;;1.80;99.90;;;;;;5071136;28;19943;-59
2023/01/19 02:46:34;;;;;;;;;;;1.70;99.90;;;;;;5052284;28;19995;-61
2023/01/19 02:49:00;;;;;;;;;;;1.70;99.90;;;;;;5072290;28;19944;-61
2023/01/19 02:51:27;;;;;;;;;;;1.60;99.90;;;;;;5072236;28;19912;-59
2023/01/19 02:54:12;;;;;;;;;;;1.70;99.90;;;;;;5072619;28;19951;-61
2023/01/19 02:56:49;;;;;;;;;;;1.70;99.90;;;;;;5088169;22;19924;-60
2023/01/19 02:59:34;;;;;;;;;;;1.60;99.90;;;;;;5074727;28;19916;-62
2023/01/19 03:02:16;;;;;;;;;;;1.50;99.90;;;;;;5067203;28;19920;-61
2023/01/19 03:04:42;;;;;;;;;;;1.40;99.90;;;;;;5069776;28;20512;-58
2023/01/19 03:07:16;;;;;;;;;;;1.50;99.90;;;;;;5068083;28;20000;-60
2023/01/19 03:09:42;;;;;;;;;;;1.50;99.90;;;;;;5083690;28;20275;-61
2023/01/19 03:12:10;;;;;;;;;;;1.50;99.90;;;;;;5071120;28;19955;-59
2023/01/19 03:14:39;;;;;;;;;;;1.60;99.90;;;;;;5071258;28;19920;-59
2023/01/19 03:17:06;;;;;;;;;;;1.60;99.90;;;;;;5087047;28;20389;-60
2023/01/19 03:19:35;;;;;;;;;;;1.60;99.90;;;;;;5056459;28;19913;-60
2023/01/19 03:22:12;;;;;;;;;;;1.60;99.90;;;;;;5079354;28;19912;-60
2023/01/19 03:24:40;;;;;;;;;;;1.50;99.90;;;;;;5054668;28;19922;-60
2023/01/19 03:27:09;;;;;;;;;;;1.40;99.90;;;;;;5070880;28;19920;-60
2023/01/19 03:29:35;;;;;;;;;;;1.40;99.90;;;;;;5060606;28;19912;-61
2023/01/19 03:32:04;;;;;;;;;;;1.30;99.90;;;;;;5071091;28;19912;-60
2023/01/19 03:34:30;;;;;;;;;;;1.20;99.90;;;;;;5067852;28;19919;-60
2023/01/19 03:36:57;;;;;;;;;;;1.10;99.90;;;;;;5069912;28;19939;-60
2023/01/19 03:39:24;;;;;;;;;;;1.20;99.90;;;;;;5071483;28;20350;-60
2023/01/19 03:41:52;;;;;;;;;;;1.20;99.90;;;;;;5074583;28;19912;-62
2023/01/19 03:44:17;;;;;;;;;;;1.20;99.90;;;;;;5074187;28;19947;-61
2023/01/19 03:46:44;;;;;;;;;;;1.10;99.90;;;;;;5072787;28;19952;-60
2023/01/19 03:49:10;;;;;;;;;;;1.10;99.90;;;;;;5070207;28;19913;-59
2023/01/19 03:51:36;;;;;;;;;;;1.10;99.90;;;;;;5052654;28;19919;-59
2023/01/19 03:54:03;;;;;;;;;;;1.10;99.90;;;;;;5078084;28;20316;-58
2023/01/19 03:56:29;;;;;;;;;;;1.10;99.90;;;;;;5071063;28;19951;-59
2023/01/19 03:58:54;;;;;;;;;;;1.10;99.90;;;;;;5074277;28;19960;-59
2023/01/19 04:01:23;;;;;;;;;;;1.10;99.90;;;;;;5070999;28;20332;-60
2023/01/19 04:03:49;;;;;;;;;;;1.00;99.90;;;;;;5068608;28;19948;-60
2023/01/19 04:06:15;;;;;;;;;;;1.00;99.90;;;;;;5053366;28;19916;-60
2023/01/19 04:08:41;;;;;;;;;;;1.00;99.90;;;;;;5067604;28;20437;-58
2023/01/19 04:11:10;;;;;;;;;;;1.10;99.90;;;;;;5069803;28;20003;-61
2023/01/19 04:13:35;;;;;;;;;;;1.20;99.90;;;;;;5068447;28;20370;-60
2023/01/19 04:16:01;;;;;;;;;;;1.50;99.90;;;;;;5070197;28;19988;-60
2023/01/19 04:18:31;;;;;;;;;;;1.80;99.90;;;;;;5067016;28;19924;-60
2023/01/19 04:21:03;;;;;;;;;;;1.90;99.90;;;;;;5066803;28;19920;-60
2023/01/19 04:23:29;;;;;;;;;;;2.10;99.90;;;;;;5069505;28;19913;-61
2023/01/19 04:25:58;;;;;;;;;;;2.10;99.90;;;;;;5063722;28;19943;-59
2023/01/19 04:28:24;;;;;;;;;;;2.20;99.90;;;;;;5054501;28;19935;-59
2023/01/19 04:30:51;;;;;;;;;;;2.30;99.90;;;;;;5069109;28;20401;-61
2023/01/19 04:33:17;;;;;;;;;;;2.30;99.90;;;;;;5072893;28;19912;-60
2023/01/19 04:35:43;;;;;;;;;;;2.30;99.90;;;;;;5069066;28;19943;-59
2023/01/19 04:38:09;;;;;;;;;;;2.40;99.90;;;;;;5075029;28;19919;-60
2023/01/19 04:40:34;;;;;;;;;;;2.50;99.90;;;;;;5068750;28;19916;-60
2023/01/19 04:43:00;;;;;;;;;;;2.50;99.90;;;;;;5068307;28;20459;-60
2023/01/19 04:45:25;;;;;;;;;;;2.60;99.90;;;;;;5068752;28;21262;-59
2023/01/19 04:47:51;;;;;;;;;;;2.60;99.90;;;;;;5069192;28;19920;-57
2023/01/19 04:50:16;;;;;;;;;;;2.60;99.90;;;;;;5068127;28;20392;-59
2023/01/19 04:52:42;;;;;;;;;;;2.60;99.90;;;;;;5063403;28;19913;-58
2023/01/19 04:55:07;;;;;;;;;;;2.60;99.90;;;;;;5071970;28;20346;-57
2023/01/19 04:57:33;;;;;;;;;;;2.70;99.90;;;;;;5067226;28;19975;-57
2023/01/19 04:59:58;;;;;;;;;;;2.70;99.90;;;;;;5077385;28;20311;-60
2023/01/19 05:02:24;;;;;;;;;;;2.70;99.90;;;;;;5065681;28;20007;-61
2023/01/19 05:04:50;;;;;;;;;;;2.70;99.90;;;;;;5071362;28;20372;-61
2023/01/19 05:07:16;;;;;;;;;;;2.70;99.90;;;;;;5072724;28;19912;-61
2023/01/19 05:09:41;;;;;;;;;;;2.70;99.90;;;;;;5057609;28;19966;-60
2023/01/19 05:12:07;;;;;;;;;;;2.70;99.90;;;;;;5073791;28;19912;-60
2023/01/19 05:14:33;;;;;;;;;;;2.70;99.90;;;;;;5072483;28;19912;-60
2023/01/19 05:16:59;;;;;;;;;;;2.70;99.90;;;;;;5072771;28;19913;-59
2023/01/19 05:19:24;;;;;;;;;;;2.80;99.90;;;;;;5074076;28;20374;-59
2023/01/19 05:21:50;;;;;;;;;;;2.80;99.90;;;;;;5077350;28;20049;-59
2023/01/19 05:24:16;;;;;;;;;;;2.80;99.90;;;;;;5075640;28;20380;-60
2023/01/19 05:26:41;;;;;;;;;;;2.90;99.90;;;;;;5069445;28;21773;-61
2023/01/19 05:29:07;;;;;;;;;;;2.80;99.90;;;;;;5068430;28;19919;-60
2023/01/19 05:31:32;;;;;;;;;;;2.80;99.90;;;;;;5072457;28;20386;-59
2023/01/19 05:33:58;;;;;;;;;;;2.80;99.90;;;;;;5071582;28;19917;-59
2023/01/19 05:36:23;;;;;;;;;;;2.80;99.90;;;;;;5073717;28;19912;-60
2023/01/19 05:38:49;;;;;;;;;;;2.90;99.90;;;;;;5074460;28;19935;-59
2023/01/19 05:41:14;;;;;;;;;;;2.80;99.90;;;;;;5081607;28;20309;-61
2023/01/19 05:43:40;;;;;;;;;;;2.80;99.90;;;;;;5073129;28;19951;-60
2023/01/19 05:46:05;;;;;;;;;;;2.80;99.90;;;;;;5072447;28;19920;-61
2023/01/19 05:48:31;;;;;;;;;;;2.70;99.90;;;;;;5073460;28;20446;-60
2023/01/19 05:51:00;;;;;;;;;;;2.70;99.90;;;;;;5074012;28;19916;-60
2023/01/19 05:53:26;;;;;;;;;;;2.70;99.90;;;;;;5056021;28;19920;-61
2023/01/19 05:55:51;;;;;;;;;;;2.70;99.90;;;;;;5068632;28;19924;-61
2023/01/19 05:58:17;;;;;;;;;;;2.70;99.90;;;;;;5077127;28;19912;-59
2023/01/19 06:00:42;;;;;;;;;;;2.60;99.90;;;;;;5069344;28;20011;-58
2023/01/19 06:03:08;;;;;;;;;;;2.40;99.90;;;;;;5071177;28;19912;-59
2023/01/19 06:05:34;;;;;;;;;;;2.40;99.90;;;;;;5069531;28;19938;-59
2023/01/19 06:08:00;;;;;;;;;;;2.20;99.90;;;;;;5069458;28;19912;-59
2023/01/19 06:10:26;;;;;;;;;;;2.20;99.90;;;;;;5071573;28;19955;-61
2023/01/19 06:12:52;;;;;;;;;;;2.20;99.90;;;;;;5054382;28;19967;-59
2023/01/19 06:15:18;;;;;;;;;;;2.00;99.90;;;;;;5060611;28;19922;-61
2023/01/19 06:17:43;;;;;;;;;;;2.00;99.90;;;;;;5068393;28;21690;-59
2023/01/19 06:20:09;;;;;;;;;;;2.00;99.90;;;;;;5071774;28;20045;-56
2023/01/19 06:22:35;;;;;;;;;;;1.90;99.90;;;;;;5068119;28;20019;-58
2023/01/19 06:25:00;;;;;;;;;;;1.90;99.90;;;;;;5069720;28;19917;-59
2023/01/19 06:27:26;;;;;;;;;;;1.80;99.90;;;;;;5072587;28;19912;-58
2023/01/19 06:29:51;;;;;;;;;;;1.80;99.90;;;;;;5072670;28;19916;-58
2023/01/19 06:32:17;;;;;;;;;;;;;;;;;;5068766;28;19916;-60
2023/01/19 06:34:43;;;;;;;;;;;1.70;99.90;;;;;;5071027;28;19920;-58
2023/01/19 06:37:10;;;;;;;;;;;1.70;99.90;;;;;;5067731;28;19912;-59
2023/01/19 06:39:36;;;;;;;;;;;1.70;99.90;;;;;;5071904;28;19966;-59
2023/01/19 06:42:02;;;;;;;;;;;1.70;99.90;;;;;;5054197;28;19962;-60
2023/01/19 06:44:28;;;;;;;;;;;1.70;99.90;;;;;;5071579;28;19908;-59
2023/01/19 06:46:54;;;;;;;;;;;;;;;;;;5071004;28;19916;-57
2023/01/19 06:49:19;;;;;;;;;;;1.60;99.90;;;;;;5071200;28;19909;-59
2023/01/19 06:51:45;;;;;;;;;;;1.60;99.90;;;;;;5073348;28;19948;-60
2023/01/19 06:54:10;;;;;;;;;;;1.60;99.90;;;;;;5071849;28;19909;-59
2023/01/19 06:56:35;;;;;;;;;;;1.70;99.90;;;;;;5071482;28;20015;-60
2023/01/19 06:59:01;;;;;;;;;;;1.60;99.90;;;;;;5066180;28;19915;-57
2023/01/19 07:01:26;;;;;;;;;;;1.60;99.90;;;;;;5073265;28;19908;-58
2023/01/19 07:03:52;;;;;;;;;;;1.60;99.90;;;;;;5073036;28;19904;-57
2023/01/19 07:06:18;;;;;;;;;;;1.60;99.90;;;;;;5072958;28;19919;-59
2023/01/19 07:08:43;;;;;;;;;;;1.60;99.90;;;;;;5071809;28;19904;-61
2023/01/19 07:11:09;;;;;;;;;;;1.60;99.90;;;;;;5074675;28;19909;-59
2023/01/19 07:13:35;;;;;;;;;;;1.70;99.90;;;;;;5073318;28;20389;-60
2023/01/19 07:16:08;;;;;;;;;;;1.70;99.90;;;;;;5072772;28;19919;-59
2023/01/19 07:18:35;;;;;;;;;;;1.70;99.90;;;;;;5073136;28;19905;-60
2023/01/19 07:21:00;;;;;;;;;;;1.70;99.90;;;;;;5072381;28;19905;-60
2023/01/19 07:23:29;;;;;;;;;;;1.70;99.90;;;;;;5071852;28;19932;-60
2023/01/19 07:25:55;;;;;;;;;;;1.70;99.90;;;;;;5070774;28;19908;-60
2023/01/19 07:28:20;;;;;;;;;;;1.80;99.90;;;;;;5069156;28;19920;-60
2023/01/19 07:30:49;;;;;;;;;;;1.80;99.90;;;;;;5068282;28;20289;-58
2023/01/19 07:33:15;;;;;;;;;;;1.90;99.90;;;;;;5068023;28;19944;-59
2023/01/19 07:35:44;;;;;;;;;;;1.90;99.90;;;;;;5068949;28;19948;-57
2023/01/19 07:38:10;;;;;;;;;;;1.90;99.90;;;;;;5070328;28;19916;-59
2023/01/19 07:40:35;;;;;;;;;;;2.30;99.90;;;;;;5069797;28;20296;-62
2023/01/19 07:43:01;;;;;;;;;;;2.30;99.90;;;;;;5066611;28;20342;-61
2023/01/19 07:45:26;;;;;;;;;;;2.20;99.90;;;;;;5066174;28;19924;-61
2023/01/19 07:47:52;;;;;;;;;;;2.20;99.90;;;;;;5070324;28;19904;-60
2023/01/19 07:50:20;;;;;;;;;;;2.10;99.90;;;;;;5068442;28;19946;-58
2023/01/19 07:52:45;;;;;;;;;;;2.10;99.90;;;;;;5065460;28;20087;-61
2023/01/19 07:55:11;;;;;;;;;;;2.20;99.90;;;;;;5068582;28;20000;-60
2023/01/19 07:57:36;;;;;;;;;;;2.20;99.90;;;;;;5072121;28;19909;-60
2023/01/19 08:00:03;;;;;;;;;;;2.10;99.90;;;;;;5069292;28;19908;-61
2023/01/19 08:02:30;;;;;;;;;;;2.10;99.90;;;;;;5069622;28;19915;-61
2023/01/19 08:04:56;;;;;;;;;;;2.10;99.90;;;;;;5067975;28;19912;-61
2023/01/19 08:07:21;;;;;;;;;;;2.10;99.90;;;;;;5070310;28;19967;-61
2023/01/19 08:09:46;;;;;;;;;;;2.10;99.90;;;;;;5068573;28;20487;-61
2023/01/19 08:12:12;;;;;;;;;;;2.10;99.90;;;;;;5070510;28;20314;-61
2023/01/19 08:14:37;;;;;;;;;;;2.10;99.90;;;;;;5068516;28;19966;-61
2023/01/19 08:17:03;;;;;;;;;;;2.20;99.90;;;;;;5069384;28;19908;-61
2023/01/19 08:19:28;;;;;;;;;;;2.20;99.90;;;;;;5069213;28;19952;-61
2023/01/19 08:21:55;;;;;;;;;;;2.20;99.90;;;;;;5070664;28;19912;-60
2023/01/19 08:24:21;;;;;;;;;;;2.20;99.90;;;;;;5068901;28;19912;-61
2023/01/19 08:26:47;;;;;;;;;;;2.20;99.90;;;;;;5069914;28;20329;-61
2023/01/19 08:29:13;;;;;;;;;;;2.20;99.90;;;;;;5070491;28;19909;-61
2023/01/19 08:31:38;;;;;;;;;;;2.20;99.90;;;;;;5070102;28;19904;-61
2023/01/19 08:34:04;;;;;;;;;;;2.20;99.90;;;;;;5063174;28;19955;-61
2023/01/19 08:36:29;;;;;;;;;;;2.20;99.90;;;;;;5069739;28;20416;-61
2023/01/19 08:38:55;;;;;;;;;;;2.20;99.90;;;;;;5070419;28;19947;-59
2023/01/19 08:41:21;;;;;;;;;;;2.30;99.90;;;;;;5065772;28;20377;-60
2023/01/19 08:43:47;;;;;;;;;;;2.20;99.90;;;;;;5069796;28;19919;-60
2023/01/19 08:46:16;;;;;;;;;;;2.20;99.90;;;;;;5070090;28;20360;-61
2023/01/19 08:48:42;;;;;;;;;;;2.20;99.90;;;;;;5067680;28;20350;-61
2023/01/19 08:51:08;;;;;;;;;;;2.30;99.90;;;;;;5067271;28;20369;-62
2023/01/19 08:53:33;;;;;;;;;;;2.30;99.90;;;;;;5069391;28;19954;-61
2023/01/19 08:56:00;;;;;;;;;;;2.30;99.90;;;;;;5094173;22;19970;-57
2023/01/19 08:58:25;;;;;;;;;;;2.30;99.90;;;;;;5070714;28;19917;-59
2023/01/19 09:00:51;;;;;;;;;;;2.30;99.90;;;;;;5074328;28;19926;-59
2023/01/19 09:03:17;;;;;;;;;;;2.30;99.90;;;;;;5062609;28;19930;-58
2023/01/19 09:05:42;;;;;;;;;;;2.40;99.90;;;;;;5062168;28;19961;-59
2023/01/19 09:08:09;;;;;;;;;;;2.30;99.90;;;;;;5072923;28;19944;-59
2023/01/19 09:10:36;;;;;;;;;;;2.40;99.90;;;;;;5065034;28;19908;-60
2023/01/19 09:13:07;;;;;;;;;;;2.40;99.90;;;;;;5071069;28;19909;-59
2023/01/19 09:15:34;;;;;;;;;;;2.50;99.90;;;;;;5068661;28;20037;-59
2023/01/19 09:18:00;;;;;;;;;;;2.40;99.90;;;;;;5051963;28;20003;-60
2023/01/19 09:20:27;;;;;;;;;;;2.40;99.90;;;;;;5074580;28;19905;-60
2023/01/19 09:22:54;;;;;;;;;;;2.40;99.90;;;;;;5074914;28;19911;-60
2023/01/19 09:25:20;;;;;;;;;;;2.50;99.90;;;;;;5080363;28;20020;-59
2023/01/19 09:27:45;;;;;;;;;;;2.50;99.90;;;;;;5080025;28;19998;-60
2023/01/19 09:30:11;;;;;;;;;;;2.50;99.90;;;;;;5066701;28;19909;-59
2023/01/19 09:32:36;;;;;;;;;;;2.50;99.90;;;;;;5068390;28;19909;-59
2023/01/19 09:35:02;;;;;;;;;;;2.60;99.90;;;;;;5070210;28;19915;-59
2023/01/19 09:37:27;;;;;;;;;;;2.60;99.90;;;;;;5070591;28;20029;-59
2023/01/19 09:39:53;;;;;;;;;;;2.60;99.90;;;;;;5074417;28;19912;-59
2023/01/19 09:42:18;;;;;;;;;;;2.60;99.90;;;;;;5074118;28;20015;-58
2023/01/19 09:44:44;;;;;;;;;;;2.60;99.90;;;;;;5070789;28;19946;-60
2023/01/19 09:47:13;;;;;;;;;;;2.70;99.90;;;;;;5069330;28;19978;-59
2023/01/19 09:49:41;;;;;;;;;;;2.70;99.90;;;;;;5070262;28;20318;-58
2023/01/19 09:52:09;;;;;;;;;;;2.70;99.90;;;;;;5068213;28;20374;-60
2023/01/19 09:54:45;;;;;;;;;;;2.80;99.90;;;;;;5076598;28;20358;-60
2023/01/19 09:57:10;;;;;;;;;;;2.80;99.90;;;;;;5077027;28;19912;-60
2023/01/19 09:59:37;;;;;;;;;;;2.80;99.90;;;;;;5076944;28;19923;-60
2023/01/19 10:02:06;;;;;;;;;;;2.80;99.90;;;;;;5074307;28;19908;-60
2023/01/19 10:04:47;;;;;;;;;;;2.80;99.90;;;;;;5073867;28;19908;-58
2023/01/19 10:07:27;;;;;;;;;;;2.80;99.90;;;;;;5073258;28;20316;-58
2023/01/19 10:09:52;;;;;;;;;;;2.70;99.90;;;;;;5079997;28;19905;-58
2023/01/19 10:12:27;;;;;;;;;;;2.60;99.90;;;;;;5070872;28;19958;-60
2023/01/19 10:15:11;;;;;;;;;;;2.50;99.90;;;;;;5069370;28;19916;-59
2023/01/19 10:17:48;;;;;;;;;;;2.50;99.90;;;;;;5072037;28;19920;-59
2023/01/19 10:20:21;;;;;;;;;;;2.50;99.90;;;;;;5073492;28;19905;-59
2023/01/19 10:22:48;;;;;;;;;;;2.50;99.90;;;;;;5077791;28;20011;-59
2023/01/19 10:25:16;;;;;;;;;;;2.60;99.90;;;;;;5070749;28;19924;-60
2023/01/19 10:27:42;;;;;;;;;;;2.60;99.90;;;;;;5071163;28;20312;-60
2023/01/19 10:30:14;;;;;;;;;;;2.60;99.90;;;;;;5068700;28;20011;-60
2023/01/19 10:32:39;;;;;;;;;;;2.60;99.90;;;;;;5071362;28;19970;-60
2023/01/19 10:35:23;;;;;;;;;;;2.70;99.90;;;;;;5075370;28;20286;-58
2023/01/19 10:37:50;;;;;;;;;;;2.70;99.90;;;;;;5064384;28;19908;-60
2023/01/19 10:40:24;;;;;;;;;;;2.80;99.90;;;;;;5067940;28;19909;-61
2023/01/19 10:42:49;;;;;;;;;;;2.80;99.90;;;;;;5066789;28;19908;-61
2023/01/19 10:45:16;;;;;;;;;;;2.80;99.90;;;;;;5067767;28;20394;-60
2023/01/19 10:47:42;;;;;;;;;;;2.90;99.90;;;;;;5063713;28;19958;-61
2023/01/19 10:50:26;;;;;;;;;;;2.90;99.90;;;;;;5062568;28;19908;-59
2023/01/19 10:52:53;;;;;;;;;;;3.00;99.90;;;;;;5066259;28;19944;-60
2023/01/19 10:55:29;;;;;;;;;;;3.00;99.90;;;;;;5072789;28;19908;-61
2023/01/19 10:57:55;;;;;;;;;;;3.10;99.90;;;;;;5076769;28;20109;-60
2023/01/19 11:00:27;;;;;;;;;;;3.10;99.90;;;;;;5066457;28;20346;-59
2023/01/19 11:02:53;;;;;;;;;;;3.10;99.90;;;;;;5066481;28;19995;-60
2023/01/19 11:05:20;;;;;;;;;;;3.10;99.90;;;;;;5071891;28;20043;-61
2023/01/19 11:07:46;;;;;;;;;;;3.10;99.90;;;;;;5073596;28;19920;-61
2023/01/19 11:10:14;;;;;;;;;;;3.10;99.90;;;;;;5077462;28;20011;-60
2023/01/19 11:12:41;;;;;;;;;;;3.10;99.90;;;;;;5071724;28;20491;-61
2023/01/19 11:15:14;;;;;;;;;;;3.20;99.90;;;;;;5074109;28;19947;-60
2023/01/19 11:17:41;;;;;;;;;;;3.20;99.90;;;;;;5068963;28;19968;-61
2023/01/19 11:20:16;;;;;;;;;;;3.20;99.90;;;;;;5073228;28;19927;-60
2023/01/19 11:22:42;;;;;;;;;;;3.30;99.90;;;;;;5078369;28;19936;-61
2023/01/19 11:25:19;;;;;;;;;;;3.40;99.90;;;;;;5071093;28;20477;-60
2023/01/19 11:27:47;;;;;;;;;;;3.40;99.90;;;;;;5067235;28;19920;-61
2023/01/19 11:30:18;;;;;;;;;;;3.50;99.90;;;;;;5072874;28;19909;-60
2023/01/19 11:32:44;;;;;;;;;;;3.50;99.90;;;;;;5066370;28;19909;-59
2023/01/19 11:35:28;;;;;;;;;;;3.50;99.90;;;;;;5079237;28;19912;-61
2023/01/19 11:38:12;;;;;;;;;;;3.60;99.90;;;;;;5069581;28;19920;-61
2023/01/19 11:40:38;;;;;;;;;;;3.60;99.90;;;;;;5069399;28;19962;-59
2023/01/19 11:43:04;;;;;;;;;;;3.60;99.90;;;;;;5078888;28;19919;-63
2023/01/19 11:45:31;;;;;;;;;;;3.80;99.90;;;;;;5077038;28;19917;-61
2023/01/19 11:47:59;;;;;;;;;;;3.90;99.90;;;;;;5082928;28;19909;-60
2023/01/19 11:50:38;;;;;;;;;;;4.10;99.90;;;;;;5089609;28;19927;-61
2023/01/19 11:53:13;;;;;;;;;;;4.10;99.90;;;;;;5077842;28;20006;-61
2023/01/19 11:55:38;;;;;;;;;;;4.10;99.90;;;;;;5071991;28;19904;-61
2023/01/19 11:58:04;;;;;;;;;;;4.30;99.90;;;;;;5078228;28;19927;-60
2023/01/19 12:00:35;;;;;;;;;;;4.30;99.90;;;;;;5072828;28;19905;-61
2023/01/19 12:03:04;;;;;;;;;;;4.40;99.90;;;;;;5076372;28;19935;-61
2023/01/19 12:05:32;;;;;;;;;;;4.50;99.90;;;;;;5071775;28;20392;-60
2023/01/19 12:07:59;;;;;;;;;;;4.60;99.90;;;;;;5073227;28;19917;-60
2023/01/19 12:10:26;;;;;;;;;;;4.60;99.90;;;;;;5074776;28;19912;-61
2023/01/19 12:12:52;;;;;;;;;;;4.70;99.90;;;;;;5074755;28;19973;-59
2023/01/19 12:15:22;;;;;;;;;;;4.70;99.90;;;;;;5070661;28;20358;-61
2023/01/19 12:17:49;;;;;;;;;;;4.80;99.90;;;;;;5075470;28;19955;-61
2023/01/19 12:20:26;;;;;;;;;;;4.70;99.90;;;;;;5084666;28;19999;-59
2023/01/19 12:23:07;;;;;;;;;;;4.40;99.90;;;;;;5079959;28;19912;-61
2023/01/19 12:25:41;;;;;;;;;;;4.50;99.90;;;;;;5073752;28;19912;-61
2023/01/19 12:28:10;;;;;;;;;;;4.80;99.90;;;;;;5069553;28;19908;-61
2023/01/19 12:30:35;;;;;;;;;;;5.00;99.90;;;;;;5085669;28;19909;-61
2023/01/19 12:33:18;;;;;;;;;;;4.90;99.90;;;;;;5068360;28;19991;-61
2023/01/19 12:35:53;;;;;;;;;;;4.80;99.90;;;;;;5067696;28;19909;-61
2023/01/19 12:38:29;;;;;;;;;;;5.10;99.90;;;;;;5070905;28;19922;-60
2023/01/19 12:41:13;;;;;;;;;;;5.30;99.90;;;;;;5070973;28;19912;-58
2023/01/19 12:43:38;;;;;;;;;;;5.50;99.90;;;;;;5078489;28;19914;-59
2023/01/19 12:46:17;;;;;;;;;;;5.10;99.90;;;;;;5088318;28;20322;-59
2023/01/19 12:48:42;;;;;;;;;;;4.90;99.90;;;;;;5077680;28;19915;-61
2023/01/19 12:51:08;;;;;;;;;;;5.10;99.90;;;;;;5069890;28;19908;-61
2023/01/19 12:53:33;;;;;;;;;;;5.10;99.90;;;;;;5071568;28;20034;-60
2023/01/19 12:56:00;;;;;;;;;;;5.10;99.90;;;;;;5071472;28;19908;-61
2023/01/19 12:58:26;;;;;;;;;;;5.10;99.90;;;;;;5072867;28;19912;-59
2023/01/19 13:01:11;;;;;;;;;;;5.00;99.90;;;;;;5082876;28;19908;-60
2023/01/19 13:03:57;;;;;;;;;;;4.80;99.90;;;;;;5069915;28;19915;-56
2023/01/19 13:06:41;;;;;;;;;;;5.10;99.90;;;;;;5088562;28;19916;-60
2023/01/19 13:09:27;;;;;;;;;;;5.30;99.90;;;;;;5078180;28;19961;-56
2023/01/19 13:12:12;;;;;;;;;;;5.70;99.90;;;;;;5064750;28;19908;-59
2023/01/19 13:14:37;;;;;;;;;;;6.00;99.90;;;;;;5080856;28;20289;-61
2023/01/19 13:17:04;;;;;;;;;;;6.20;99.90;;;;;;5090864;28;19904;-60
2023/01/19 13:19:41;;;;;;;;;;;6.20;99.90;;;;;;5076976;28;19983;-60
2023/01/19 13:22:25;;;;;;;;;;;6.20;99.90;;;;;;5075355;28;20031;-60
2023/01/19 13:25:05;;;;;;;;;;;6.10;99.90;;;;;;5071949;28;19955;-59
2023/01/19 13:27:33;;;;;;;;;;;6.30;99.90;;;;;;5067409;28;20007;-61
2023/01/19 13:29:59;;;;;;;;;;;6.10;99.90;;;;;;5075461;28;19909;-59
2023/01/19 13:32:24;;;;;;;;;;;6.30;99.90;;;;;;5071131;28;20333;-60
2023/01/19 13:34:51;;;;;;;;;;;6.00;99.90;;;;;;5073051;28;19912;-58
2023/01/19 13:37:18;;;;;;;;;;;5.80;99.90;;;;;;5077025;28;19983;-60
2023/01/19 13:39:45;;;;;;;;;;;5.40;99.90;;;;;;5075456;28;19915;-61
2023/01/19 13:42:15;;;;;;;;;;;5.20;99.90;;;;;;5092019;28;19916;-61
2023/01/19 13:44:45;;;;;;;;;;;5.20;99.90;;;;;;5067320;28;19927;-58
2023/01/19 13:47:15;;;;;;;;;;;5.00;99.90;;;;;;5079863;28;19908;-60
2023/01/19 13:49:43;;;;;;;;;;;4.90;99.90;;;;;;5087320;28;19909;-61
2023/01/19 13:52:13;;;;;;;;;;;4.70;99.90;;;;;;5073016;28;19950;-61
2023/01/19 13:54:52;;;;;;;;;;;4.80;99.90;;;;;;5075882;28;20419;-61
2023/01/19 13:57:26;;;;;;;;;;;4.70;99.90;;;;;;5075811;28;19950;-61
2023/01/19 14:00:04;;;;;;;;;;;4.60;99.90;;;;;;5068516;28;20015;-61
2023/01/19 14:02:29;;;;;;;;;;;4.60;99.90;;;;;;5075864;28;19909;-59
2023/01/19 14:04:56;;;;;;;;;;;4.50;99.90;;;;;;5077932;28;20274;-61
2023/01/19 14:07:25;;;;;;;;;;;4.50;99.90;;;;;;5070914;28;19920;-61
2023/01/19 14:10:08;;;;;;;;;;;4.40;99.90;;;;;;5053313;28;20601;-61
2023/01/19 14:12:33;;;;;;;;;;;4.40;99.90;;;;;;5077747;28;20007;-60
2023/01/19 14:14:59;;;;;;;;;;;4.40;99.90;;;;;;5079775;28;20003;-63
2023/01/19 14:17:26;;;;;;;;;;;4.40;99.90;;;;;;5071345;28;19924;-64
2023/01/19 14:19:53;;;;;;;;;;;4.40;99.90;;;;;;5072838;28;19912;-63
2023/01/19 14:22:18;;;;;;;;;;;4.40;99.90;;;;;;5073964;28;20420;-62
2023/01/19 14:24:43;;;;;;;;;;;4.30;99.90;;;;;;5069607;28;19917;-64
2023/01/19 14:27:18;;;;;;;;;;;4.30;99.90;;;;;;5069854;28;19916;-64
2023/01/19 14:29:46;;;;;;;;;;;4.30;99.90;;;;;;5067886;28;19921;-63
2023/01/19 14:32:14;;;;;;;;;;;4.30;99.90;;;;;;5067341;28;19961;-63
2023/01/19 14:34:41;;;;;;;;;;;4.30;99.90;;;;;;5065321;28;19924;-63
2023/01/19 14:37:13;;;;;;;;;;;4.30;99.90;;;;;;5076264;28;20034;-63
2023/01/19 14:39:42;;;;;;;;;;;4.20;99.90;;;;;;5068517;28;19959;-63
2023/01/19 14:42:13;;;;;;;;;;;4.10;99.90;;;;;;5052910;28;19966;-63